Time;durP1;ratioP1;P1;durP2;ratioP2;P2;SDS_P1;SDS_P2;PMS_P1;PMS_P2;Temp;Humidity;BMP_temperature;BMP_pressure;BME280_temperature;BME280_humidity;BME280_pressure;Samples;Min_cycle;Max_cycle;Signal;HPM_P1;HPM_P2
2020/12/02 00:00:33;;;;;;;29.25;12.55;;;;;;;10.62;55.84;102238.09;4998527;28;20087;-73
2020/12/02 00:03:23;;;;;;;29.13;11.50;;;;;;;10.63;55.79;102230.38;5008108;28;20037;-74
2020/12/02 00:05:53;;;;;;;30.55;11.60;;;;;;;10.38;56.38;102229.19;5006827;28;20034;-73
2020/12/02 00:08:32;;;;;;;29.88;11.55;;;;;;;10.35;56.35;102229.19;5006137;28;20049;-71
2020/12/02 00:11:04;;;;;;;27.42;11.70;;;;;;;10.21;56.55;102226.41;4998449;28;20109;-72
2020/12/02 00:13:33;;;;;;;34.88;13.43;;;;;;;10.19;56.71;102223.78;5007469;28;20090;-73
2020/12/02 00:16:00;;;;;;;29.52;11.77;;;;;;;10.24;56.75;102228.16;5005528;28;20037;-72
2020/12/02 00:18:26;;;;;;;30.10;12.45;;;;;;;10.37;56.31;102222.31;5007476;28;20045;-71
2020/12/02 00:20:51;;;;;;;27.70;13.57;;;;;;;10.46;56.04;102214.66;5002819;28;20040;-71
2020/12/02 00:23:17;;;;;;;32.15;11.50;;;;;;;10.42;55.80;102219.78;5003770;28;20085;-73
2020/12/02 00:25:43;;;;;;;32.08;12.88;;;;;;;10.47;56.06;102226.75;4986829;28;20088;-76
2020/12/02 00:28:11;;;;;;;26.85;11.75;;;;;;;10.35;56.39;102214.53;5005952;28;20071;-74
2020/12/02 00:30:37;;;;;;;29.13;11.10;;;;;;;10.49;55.67;102217.28;4991113;28;20548;-76
2020/12/02 00:33:18;;;;;;;35.13;12.23;;;;;;;10.58;55.51;102219.97;5011191;28;20041;-74
2020/12/02 00:35:44;;;;;;;30.90;11.75;;;;;;;10.29;56.16;102224.81;5011070;28;20045;-73
2020/12/02 00:38:12;;;;;;;32.63;11.93;;;;;;;10.36;56.29;102218.88;5011530;28;20029;-75
2020/12/02 00:40:44;;;;;;;33.03;12.88;;;;;;;10.28;56.47;102219.59;5003431;28;20215;-73
2020/12/02 00:43:11;;;;;;;31.13;12.80;;;;;;;10.34;56.41;102220.56;5008931;28;20029;-72
2020/12/02 00:45:37;;;;;;;31.52;12.35;;;;;;;10.33;56.12;102220.53;4996722;28;20030;-73
2020/12/02 00:48:03;;;;;;;30.67;12.20;;;;;;;10.52;55.43;102225.06;5007489;28;20576;-73
2020/12/02 00:50:28;;;;;;;32.70;13.60;;;;;;;10.38;56.25;102224.03;5002480;28;20523;-72
2020/12/02 00:53:07;;;;;;;36.13;13.80;;;;;;;10.35;56.34;102229.19;5004020;28;20102;-71
2020/12/02 00:55:33;;;;;;;34.72;12.60;;;;;;;10.24;56.83;102225.56;5002269;28;20068;-73
2020/12/02 00:58:02;;;;;;;34.42;12.35;;;;;;;10.31;56.40;102225.69;5010836;28;20028;-75
2020/12/02 01:00:36;;;;;;;36.55;14.20;;;;;;;10.29;56.45;102218.75;5005263;28;20516;-73
2020/12/02 01:03:18;;;;;;;34.38;13.65;;;;;;;10.38;56.21;102229.19;5001373;28;20034;-77
2020/12/02 01:05:48;;;;;;;39.65;15.02;;;;;;;9.90;57.71;102231.16;5004471;28;20034;-77
2020/12/02 01:08:20;;;;;;;27.88;12.18;;;;;;;10.14;56.53;102232.34;5009510;28;20106;-76
2020/12/02 01:10:50;;;;;;;33.75;14.00;;;;;;;9.87;57.85;102222.53;5011141;28;20034;-77
2020/12/02 01:13:16;;;;;;;42.35;13.80;;;;;;;9.99;57.68;102225.25;5006339;28;20046;-76
2020/12/02 01:15:41;;;;;;;29.63;12.95;;;;;;;10.17;56.90;102230.66;5005843;28;20180;-76
2020/12/02 01:18:33;;;;;;;38.20;13.60;;;;;;;10.14;56.99;102222.88;5006529;28;20030;-74
2020/12/02 01:21:14;;;;;;;32.55;13.10;;;;;;;10.15;57.13;102223.72;5006114;28;20220;-78
2020/12/02 01:23:45;;;;;;;30.27;13.83;;;;;;;10.16;56.91;102222.91;5005998;28;20041;-77
2020/12/02 01:26:11;;;;;;;40.47;15.20;;;;;;;10.13;56.58;102226.28;5007998;28;20042;-76
2020/12/02 01:28:37;;;;;;;36.13;14.85;;;;;;;10.03;57.10;102227.03;5005136;28;20053;-77
2020/12/02 01:31:04;;;;;;;36.33;13.45;;;;;;;9.92;57.48;102213.97;5012923;28;20033;-75
2020/12/02 01:33:31;;;;;;;33.17;13.55;;;;;;;10.08;57.22;102215.03;5004923;28;20376;-75
2020/12/02 01:35:56;;;;;;;35.13;14.25;;;;;;;10.06;56.99;102205.53;5010814;28;20037;-76
2020/12/02 01:38:28;;;;;;;38.50;13.20;;;;;;;9.77;57.86;102208.59;5010389;28;20037;-75
2020/12/02 01:40:56;;;;;;;28.92;12.10;;;;;;;10.00;57.13;102206.31;5003311;28;20117;-76
2020/12/02 01:43:21;;;;;;;36.13;14.43;;;;;;;9.87;57.38;102212.19;5006448;28;20036;-78
2020/12/02 01:45:50;;;;;;;35.08;13.60;;;;;;;9.93;57.49;102202.78;5004467;28;20019;-75
2020/12/02 01:48:28;;;;;;;29.13;12.68;;;;;;;9.92;57.55;102203.63;5011064;28;20030;-76
2020/12/02 01:51:18;;;;;;;38.30;13.35;;;;;;;9.89;57.13;102202.72;4986913;28;20103;-78
2020/12/02 01:54:01;;;;;;;35.55;12.82;;;;;;;9.76;57.81;102199.13;5010739;28;20042;-78
2020/12/02 01:56:36;;;;;;;43.72;13.95;;;;;;;9.71;58.26;102204.22;5010193;28;20058;-76
2020/12/02 01:59:32;;;;;;;35.90;14.43;;;;;;;9.75;57.80;102205.97;5003078;28;20061;-77
2020/12/02 02:02:16;;;;;;;42.92;14.93;;;;;;;9.85;57.62;102201.81;5025765;28;20503;-73
2020/12/02 02:05:11;;;;;;;39.45;14.65;;;;;;;9.97;57.31;102206.28;5001374;28;20561;-74
2020/12/02 02:07:38;;;;;;;41.70;13.93;;;;;;;9.93;57.27;102199.34;5001848;28;20038;-74
2020/12/02 02:10:18;;;;;;;40.60;14.93;;;;;;;9.97;57.11;102208.84;5013524;28;20299;-74
2020/12/02 02:12:47;;;;;;;41.78;13.98;;;;;;;9.93;57.26;102210.53;5003303;28;20270;-76
2020/12/02 02:15:34;;;;;;;38.08;14.45;;;;;;;9.74;57.71;102204.25;4989970;28;20065;-76
2020/12/02 02:18:06;;;;;;;38.47;13.50;;;;;;;9.57;58.25;102208.31;5014150;28;20064;-76
2020/12/02 02:20:35;;;;;;;25.48;10.32;;;;;;;9.74;57.64;102204.25;5012202;28;20052;-77
2020/12/02 02:23:02;;;;;;;32.65;13.95;;;;;;;9.59;58.30;102198.00;5015663;28;20045;-75
2020/12/02 02:25:28;;;;;;;33.58;13.15;;;;;;;9.63;57.92;102190.34;5008685;28;20035;-76
2020/12/02 02:27:57;;;;;;;37.78;13.48;;;;;;;9.55;58.37;102191.91;4996861;28;20582;-77
2020/12/02 02:30:24;;;;;;;37.55;14.10;;;;;;;9.64;58.06;102192.06;5014580;28;20034;-77
2020/12/02 02:32:50;;;;;;;44.92;14.18;;;;;;;9.48;58.40;102203.88;5011513;28;20383;-75
2020/12/02 02:35:16;;;;;;;32.05;13.40;;;;;;;9.48;58.74;102195.25;4996457;28;20095;-76
2020/12/02 02:37:42;;;;;;;33.05;13.13;;;;;;;9.85;57.47;102194.09;5006258;28;20136;-75
2020/12/02 02:40:10;;;;;;;35.22;11.88;;;;;;;9.90;57.45;102194.13;5015210;28;20128;-77
2020/12/02 02:42:39;;;;;;;31.17;12.82;;;;;;;9.93;57.19;102191.59;5011281;28;20030;-74
2020/12/02 02:45:23;;;;;;;39.00;13.52;;;;;;;9.85;57.55;102191.50;5011256;28;20072;-78
2020/12/02 02:47:48;;;;;;;37.00;13.85;;;;;;;9.97;56.98;102196.81;5006370;28;20038;-75
2020/12/02 02:50:16;;;;;;;36.45;13.90;;;;;;;9.84;57.49;102186.31;5012489;28;20037;-76
2020/12/02 02:52:43;;;;;;;32.92;13.80;;;;;;;9.96;57.00;102183.91;5014557;28;20038;-75
2020/12/02 02:55:19;;;;;;;42.25;14.77;;;;;;;10.00;57.06;102185.66;4998165;28;20479;-76
2020/12/02 02:57:45;;;;;;;36.92;13.73;;;;;;;9.72;57.78;102174.09;5009971;28;20046;-77
2020/12/02 03:00:17;;;;;;;33.95;13.95;;;;;;;9.94;57.24;102170.94;5014339;28;20044;-75
2020/12/02 03:02:42;;;;;;;;;;;;;;;9.84;57.40;102178.56;5012752;28;20034;-76
2020/12/02 03:05:08;;;;;;;37.80;13.55;;;;;;;9.69;57.59;102176.63;5007306;28;20282;-72
2020/12/02 03:07:34;;;;;;;42.30;14.43;;;;;;;9.71;57.77;102168.09;5013312;28;20041;-73
2020/12/02 03:10:00;;;;;;;40.28;13.88;;;;;;;9.52;58.17;102171.25;5013438;28;20040;-72
2020/12/02 03:12:27;;;;;;;43.58;15.50;;;;;;;9.67;57.52;102176.63;5018279;28;20574;-73
2020/12/02 03:14:54;;;;;;;35.75;14.18;;;;;;;9.48;58.14;102172.03;5023808;28;20029;-74
2020/12/02 03:17:22;;;;;;;48.30;17.70;;;;;;;9.52;58.33;102166.94;5006835;28;20034;-73
2020/12/02 03:19:54;;;;;;;51.75;15.32;;;;;;;9.65;57.86;102173.16;5021020;28;20081;-74
2020/12/02 03:22:22;;;;;;;38.47;14.48;;;;;;;9.61;58.32;102168.78;5007615;28;20053;-73
2020/12/02 03:24:49;;;;;;;38.55;13.20;;;;;;;9.67;57.92;102170.59;5008037;28;20030;-73
2020/12/02 03:27:15;;;;;;;46.88;14.77;;;;;;;9.69;57.62;102163.72;5008178;28;20046;-75
2020/12/02 03:29:40;;;;;;;41.35;14.50;;;;;;;9.71;57.51;102162.91;5001532;28;20040;-74
2020/12/02 03:32:06;;;;;;;37.38;13.90;;;;;;;9.62;58.07;102159.31;5011918;28;20034;-73
2020/12/02 03:34:32;;;;;;;40.92;14.93;;;;;;;9.89;57.47;102157.13;5010179;28;20021;-73
2020/12/02 03:36:57;;;;;;;38.40;13.60;;;;;;;9.82;57.47;102152.69;5014215;28;20406;-74
2020/12/02 03:39:23;;;;;;;43.75;16.42;;;;;;;9.79;57.56;102155.25;5009213;28;20079;-75
2020/12/02 03:41:48;;;;;;;36.45;14.18;;;;;;;9.51;58.36;102162.63;5019118;28;20071;-75
2020/12/02 03:44:14;;;;;;;38.08;13.50;;;;;;;9.59;58.14;102154.13;5015619;28;20033;-74
2020/12/02 03:46:39;;;;;;;36.70;15.30;;;;;;;9.80;57.61;102150.97;5007766;28;20320;-74
2020/12/02 03:49:06;;;;;;;46.53;15.10;;;;;;;9.84;57.41;102151.00;5016956;28;20044;-75
2020/12/02 03:51:32;;;;;;;47.83;15.60;;;;;;;9.82;57.62;102155.28;5007126;28;20034;-74
2020/12/02 03:53:58;;;;;;;47.70;14.18;;;;;;;9.77;57.55;102152.66;5009759;28;20025;-75
2020/12/02 03:56:26;;;;;;;48.30;15.80;;;;;;;9.85;57.31;102154.50;5007161;28;20092;-75
2020/12/02 03:58:51;;;;;;;42.25;15.52;;;;;;;9.90;57.43;102152.81;5010094;28;20067;-74
2020/12/02 04:01:17;;;;;;;55.15;17.95;;;;;;;9.89;57.48;102159.72;5003284;28;20070;-75
2020/12/02 04:03:43;;;;;;;37.15;13.90;;;;;;;9.96;57.58;102152.91;5003978;28;20495;-74
2020/12/02 04:06:10;;;;;;;38.90;14.90;;;;;;;9.92;57.29;102157.16;5008676;28;20088;-73
2020/12/02 04:08:38;;;;;;;37.95;14.77;;;;;;;9.84;57.40;102142.41;4993442;28;20072;-74
2020/12/02 04:11:04;;;;;;;49.10;14.57;;;;;;;9.77;57.48;102144.03;5009495;28;20044;-74
2020/12/02 04:13:30;;;;;;;39.42;13.75;;;;;;;9.90;57.15;102140.75;5007700;28;20297;-74
2020/12/02 04:15:56;;;;;;;41.85;13.68;;;;;;;9.92;57.17;102143.38;5014384;28;20057;-73
2020/12/02 04:18:22;;;;;;;37.00;14.20;;;;;;;10.03;56.73;102148.69;5004331;28;20502;-74
2020/12/02 04:20:47;;;;;;;46.40;15.35;;;;;;;10.09;56.55;102144.44;5012437;28;20398;-75
2020/12/02 04:23:13;;;;;;;45.03;14.38;;;;;;;10.12;56.39;102153.94;5006255;28;20077;-74
2020/12/02 04:25:38;;;;;;;42.70;15.88;;;;;;;10.01;56.72;102146.06;5013726;28;20029;-74
2020/12/02 04:28:04;;;;;;;42.28;14.63;;;;;;;10.08;56.55;102142.69;5012303;28;20033;-77
2020/12/02 04:30:29;;;;;;;46.88;14.05;;;;;;;10.09;56.64;102147.03;5003077;28;20030;-76
2020/12/02 04:32:55;;;;;;;43.45;15.00;;;;;;;10.09;56.47;102139.28;5003532;28;20345;-77
2020/12/02 04:35:20;;;;;;;48.80;14.45;;;;;;;10.14;56.53;102137.63;5009557;28;20385;-77
2020/12/02 04:37:46;;;;;;;39.55;13.90;;;;;;;10.26;56.23;102134.28;5010444;28;20030;-75
2020/12/02 04:40:28;;;;;;;43.20;14.23;;;;;;;10.26;56.25;102130.84;5009209;28;20043;-73
2020/12/02 04:43:01;;;;;;;40.17;16.33;;;;;;;10.24;56.35;102132.53;5010926;28;20065;-77
2020/12/02 04:45:29;;;;;;;47.63;15.95;;;;;;;10.23;56.10;102129.09;5006077;28;20034;-74
2020/12/02 04:47:59;;;;;;;45.75;15.35;;;;;;;10.21;56.10;102135.09;5007592;28;20037;-74
2020/12/02 04:50:27;;;;;;;41.50;16.00;;;;;;;10.17;56.33;102140.22;5019296;28;20037;-78
2020/12/02 04:53:12;;;;;;;41.92;15.45;;;;;;;10.16;56.59;102141.09;5014235;28;20021;-79
2020/12/02 04:55:39;;;;;;;40.30;15.90;;;;;;;10.17;56.24;102142.81;5004313;28;20116;-79
2020/12/02 04:58:23;;;;;;;47.95;17.13;;;;;;;10.14;56.41;102140.19;5013982;28;20048;-76
2020/12/02 05:00:48;;;;;;;45.67;17.05;;;;;;;10.12;56.46;102141.91;5008786;28;20092;-73
2020/12/02 05:03:15;;;;;;;44.15;17.08;;;;;;;10.00;56.27;102148.63;4996284;28;20037;-73
2020/12/02 05:05:42;;;;;;;44.70;17.02;;;;;;;10.07;56.16;102133.22;5022606;28;20502;-74
2020/12/02 05:08:27;;;;;;;47.90;17.13;;;;;;;10.07;56.24;102122.91;4993570;28;20034;-74
2020/12/02 05:10:54;;;;;;;50.78;17.33;;;;;;;10.09;55.86;102126.38;5004265;28;20039;-77
2020/12/02 05:13:20;;;;;;;48.28;16.95;;;;;;;10.09;55.77;102134.13;4990133;28;20042;-79
2020/12/02 05:15:46;;;;;;;39.53;16.90;;;;;;;10.10;55.47;102128.09;5009656;28;20056;-75
2020/12/02 05:18:14;;;;;;;48.78;17.70;;;;;;;10.14;55.45;102124.69;5009943;28;20057;-77
2020/12/02 05:20:44;;;;;;;49.92;17.95;;;;;;;10.05;55.79;102129.75;5013169;28;20044;-76
2020/12/02 05:23:20;;;;;;;42.13;15.23;;;;;;;10.17;55.56;102129.88;5009008;28;20060;-72
2020/12/02 05:25:46;;;;;;;45.63;16.13;;;;;;;10.11;55.68;102135.00;5003279;28;20080;-74
2020/12/02 05:28:28;;;;;;;47.45;16.50;;;;;;;10.15;55.57;102133.31;5010213;28;20116;-73
2020/12/02 05:31:17;;;;;;;50.72;17.38;;;;;;;10.10;55.70;102130.66;5007593;28;20390;-75
2020/12/02 05:33:43;;;;;;;38.33;15.60;;;;;;;9.98;55.77;102130.53;4999793;28;20044;-76
2020/12/02 05:36:32;;;;;;;50.30;17.45;;;;;;;9.98;55.63;102128.81;5005431;28;20030;-76
2020/12/02 05:39:22;;;;;;;43.22;17.73;;;;;;;9.98;55.92;102127.97;5004647;28;20030;-72
2020/12/02 05:41:52;;;;;;;39.63;15.15;;;;;;;9.89;55.75;102120.97;5006370;28;20474;-74
2020/12/02 05:44:35;;;;;;;42.47;15.05;;;;;;;9.90;55.94;102121.81;5005596;28;20038;-72
2020/12/02 05:47:09;;;;;;;41.88;17.52;;;;;;;9.78;55.97;102125.13;5016240;28;20038;-75
2020/12/02 05:49:38;;;;;;;46.83;16.98;;;;;;;9.76;56.16;102119.94;5011523;28;20383;-76
2020/12/02 05:52:05;;;;;;;47.42;18.60;;;;;;;9.86;56.03;102120.06;5015838;28;20460;-75
2020/12/02 05:54:32;;;;;;;55.33;22.13;;;;;;;9.79;56.07;102119.09;5004936;28;20042;-74
2020/12/02 05:57:01;;;;;;;54.78;21.98;;;;;;;9.90;55.55;102107.19;5012491;28;20143;-74
2020/12/02 05:59:27;;;;;;;53.33;21.08;;;;;;;9.97;55.55;102110.72;5010926;28;20506;-73
2020/12/02 06:01:56;;;;;;;55.58;19.88;;;;;;;10.08;55.16;102103.94;5012802;28;20045;-76
2020/12/02 06:04:24;;;;;;;49.25;20.48;;;;;;;10.00;55.07;102102.13;5008990;28;20033;-74
2020/12/02 06:06:57;;;;;;;45.70;19.63;;;;;;;10.00;55.62;102108.16;5011494;28;20048;-76
2020/12/02 06:09:44;;;;;;;45.80;18.33;;;;;;;10.09;55.04;102103.13;5007696;28;20395;-75
2020/12/02 06:12:38;;;;;;;48.65;19.20;;;;;;;9.97;55.55;102090.06;5009298;28;20045;-77
2020/12/02 06:15:15;;;;;;;49.90;18.15;;;;;;;10.09;54.69;102094.47;5019774;28;20030;-77
2020/12/02 06:17:40;;;;;;;47.92;17.20;;;;;;;9.99;55.38;102096.09;5010786;28;20060;-78
2020/12/02 06:20:06;;;;;;;42.28;17.25;;;;;;;10.08;55.31;102085.88;5001676;28;20124;-74
2020/12/02 06:22:48;;;;;;;45.78;18.73;;;;;;;10.04;55.43;102085.81;5006496;28;20062;-75
2020/12/02 06:25:46;;;;;;;53.38;19.75;;;;;;;10.00;55.72;102095.25;5024624;28;20041;-75
2020/12/02 06:28:22;;;;;;;55.45;19.33;;;;;;;10.00;55.67;102086.63;5012815;28;20030;-75
2020/12/02 06:31:11;;;;;;;46.67;17.85;;;;;;;10.03;55.25;102082.38;5012725;28;20116;-75
2020/12/02 06:33:38;;;;;;;47.67;19.75;;;;;;;10.04;55.35;102076.34;5009644;28;20545;-74
2020/12/02 06:36:17;;;;;;;52.67;19.40;;;;;;;9.90;55.69;102077.94;5010179;28;20053;-75
2020/12/02 06:38:43;;;;;;;45.22;18.23;;;;;;;10.00;55.74;102072.00;5018975;28;20121;-76
2020/12/02 06:41:35;;;;;;;47.80;18.30;;;;;;;9.92;55.87;102069.34;5009694;28;20028;-75
2020/12/02 06:44:16;;;;;;;50.15;18.70;;;;;;;10.03;55.60;102074.63;5006290;28;20064;-74
2020/12/02 06:46:55;;;;;;;45.88;19.52;;;;;;;10.08;55.69;102067.78;5002736;28;20042;-74
2020/12/02 06:49:30;;;;;;;50.47;17.08;;;;;;;9.98;55.43;102069.41;5018056;28;20042;-75
2020/12/02 06:52:20;;;;;;;51.55;18.42;;;;;;;9.90;55.70;102067.59;5026825;28;20120;-75
2020/12/02 06:54:45;;;;;;;46.33;18.95;;;;;;;9.73;56.28;102062.22;5003890;28;20042;-74
2020/12/02 06:57:22;;;;;;;44.92;18.50;;;;;;;9.91;55.87;102066.72;5013207;28;20030;-75
2020/12/02 06:59:48;;;;;;;48.65;17.77;;;;;;;9.98;55.69;102058.22;5011373;28;20088;-75
2020/12/02 07:02:25;;;;;;;55.08;19.50;;;;;;;9.91;56.01;102061.56;5014657;28;20029;-76
2020/12/02 07:04:51;;;;;;;61.17;21.88;;;;;;;9.75;56.55;102058.81;5009629;28;20030;-77
2020/12/02 07:07:17;;;;;;;51.90;18.23;;;;;;;9.59;56.44;102059.47;5016331;28;20112;-76
2020/12/02 07:09:47;;;;;;;46.38;17.90;;;;;;;9.80;56.03;102056.31;5017169;28;20482;-77
2020/12/02 07:12:15;;;;;;;57.17;20.48;;;;;;;9.69;55.67;102063.94;5012593;28;20045;-78
2020/12/02 07:14:42;;;;;;;58.22;20.77;;;;;;;9.66;55.39;102056.13;5008334;28;20113;-76
2020/12/02 07:17:11;;;;;;;65.35;25.42;;;;;;;9.54;55.86;102056.84;5013508;28;20080;-75
2020/12/02 07:19:40;;;;;;;59.03;22.63;;;;;;;9.60;55.57;102045.75;4995716;28;20041;-76
2020/12/02 07:22:07;;;;;;;57.35;22.42;;;;;;;9.55;55.60;102047.38;5014321;28;20378;-76
2020/12/02 07:24:40;;;;;;;63.22;22.08;;;;;;;9.62;55.48;102049.19;5007569;28;20655;-73
2020/12/02 07:27:06;;;;;;;57.00;21.23;;;;;;;9.30;56.00;102047.06;5009616;28;20038;-75
2020/12/02 07:29:32;;;;;;;57.22;22.73;;;;;;;9.45;55.44;102055.88;5009977;28;20040;-74
2020/12/02 07:32:04;;;;;;;53.30;21.55;;;;;;;9.33;55.52;102057.44;5009539;28;20034;-74
2020/12/02 07:34:31;;;;;;;57.33;22.98;;;;;;;9.42;55.20;102051.56;5010388;28;20045;-77
2020/12/02 07:37:17;;;;;;;63.10;23.52;;;;;;;9.37;55.39;102048.03;5013507;28;20125;-78
2020/12/02 07:39:55;;;;;;;52.22;20.35;;;;;;;9.39;55.30;102055.78;5015289;28;20037;-77
2020/12/02 07:42:25;;;;;;;54.38;21.00;;;;;;;9.39;54.99;102050.63;5011979;28;20062;-76
2020/12/02 07:45:15;;;;;;;58.70;21.15;;;;;;;9.39;55.29;102050.63;4991772;28;20018;-78
2020/12/02 07:47:55;;;;;;;59.95;21.98;;;;;;;9.47;55.14;102054.19;5004850;28;20045;-78
2020/12/02 07:50:36;;;;;;;57.05;22.25;;;;;;;9.46;54.84;102053.28;5011736;28;20045;-78
2020/12/02 07:53:18;;;;;;;48.93;20.73;;;;;;;9.57;54.92;102043.09;5008818;28;20045;-76
2020/12/02 07:55:46;;;;;;;42.90;17.90;;;;;;;9.48;54.96;102043.84;5023723;28;20284;-77
2020/12/02 07:58:28;;;;;;;55.28;22.58;;;;;;;9.50;54.97;102038.72;5015465;28;20052;-77
2020/12/02 08:00:56;;;;;;;;;;;;;;;9.58;55.20;102037.13;5015834;28;20187;-75
2020/12/02 08:03:40;;;;;;;60.88;22.30;;;;;;;9.43;55.28;102026.59;5026214;28;20064;-75
2020/12/02 08:06:09;;;;;;;55.85;20.98;;;;;;;9.63;54.50;102025.13;5024853;28;20040;-72
2020/12/02 08:08:34;;;;;;;64.65;22.15;;;;;;;9.56;55.24;102018.16;5011575;28;20061;-73
2020/12/02 08:11:06;;;;;;;55.88;22.40;;;;;;;9.49;54.93;102013.78;5015773;28;20067;-74
2020/12/02 08:13:34;;;;;;;60.75;22.15;;;;;;;9.40;55.60;102021.38;5004860;28;20419;-73
2020/12/02 08:16:01;;;;;;;59.33;22.50;;;;;;;9.33;55.23;102018.75;5012980;28;20033;-74
2020/12/02 08:18:29;;;;;;;57.67;23.33;;;;;;;9.33;55.58;102018.75;5007805;28;20061;-76
2020/12/02 08:21:11;;;;;;;53.38;22.40;;;;;;;9.51;55.30;102012.94;5010644;28;20108;-75
2020/12/02 08:23:37;;;;;;;47.17;19.67;;;;;;;9.59;55.03;102007.88;5007026;28;20145;-73
2020/12/02 08:26:16;;;;;;;56.35;21.98;;;;;;;9.64;55.18;102013.06;5010934;28;20433;-74
2020/12/02 08:28:42;;;;;;;55.97;22.92;;;;;;;9.35;55.59;102008.44;5006956;28;20053;-73
2020/12/02 08:31:10;;;;;;;59.85;23.02;;;;;;;9.25;55.68;102004.88;5009648;28;20086;-74
2020/12/02 08:33:35;;;;;;;53.78;22.90;;;;;;;9.42;55.36;102001.63;5010594;28;20510;-74
2020/12/02 08:36:07;;;;;;;51.28;21.25;;;;;;;9.28;55.77;101994.59;5018877;28;20030;-75
2020/12/02 08:38:40;;;;;;;57.50;22.85;;;;;;;9.38;55.77;102002.44;5011416;28;20121;-74
2020/12/02 08:41:15;;;;;;;62.17;22.08;;;;;;;9.43;55.70;102006.81;5020806;28;20038;-74
2020/12/02 08:43:51;;;;;;;54.28;21.60;;;;;;;9.23;56.16;102001.41;5010118;28;20049;-73
2020/12/02 08:46:25;;;;;;;51.03;20.40;;;;;;;9.28;56.11;102010.06;5006738;28;20034;-73
2020/12/02 08:48:57;;;;;;;54.72;21.52;;;;;;;9.54;55.47;101999.22;5026050;28;20034;-74
2020/12/02 08:51:24;;;;;;;57.97;21.55;;;;;;;8.97;56.64;101990.75;5019201;28;20042;-73
2020/12/02 08:53:51;;;;;;;58.60;24.45;;;;;;;9.33;55.78;101992.94;5007103;28;20033;-74
2020/12/02 08:56:41;;;;;;;54.85;21.73;;;;;;;9.44;55.72;101989.63;5007532;28;20030;-75
2020/12/02 08:59:09;;;;;;;58.10;21.67;;;;;;;9.16;56.12;101997.03;5006435;28;20042;-73
2020/12/02 09:01:35;;;;;;;57.00;21.83;;;;;;;9.45;55.62;101988.78;5010411;28;20038;-72
2020/12/02 09:04:01;;;;;;;59.40;23.15;;;;;;;9.39;55.68;101988.69;5009072;28;20044;-75
2020/12/02 09:06:26;;;;;;;58.45;22.63;;;;;;;9.28;55.54;101984.25;5000733;28;20048;-75
2020/12/02 09:08:52;;;;;;;51.40;21.20;;;;;;;9.22;55.99;101989.38;5003872;28;20042;-74
2020/12/02 09:11:27;;;;;;;55.30;23.88;;;;;;;9.28;56.23;101981.69;4995733;28;20058;-74
2020/12/02 09:13:53;;;;;;;54.88;21.95;;;;;;;9.45;55.90;101974.16;5004020;28;20049;-73
2020/12/02 09:16:29;;;;;;;52.83;21.38;;;;;;;9.62;55.65;101966.59;5002961;28;20026;-73
2020/12/02 09:18:55;;;;;;;56.15;23.42;;;;;;;9.60;55.73;101973.47;5008239;28;20553;-74
2020/12/02 09:21:22;;;;;;;57.33;21.67;;;;;;;9.74;55.40;101971.03;4990530;28;20045;-73
2020/12/02 09:23:48;;;;;;;59.88;21.83;;;;;;;9.67;55.21;101964.94;5019937;28;20065;-72
2020/12/02 09:26:19;;;;;;;58.97;22.33;;;;;;;9.47;55.40;101963.88;5014673;28;20141;-73
2020/12/02 09:28:46;;;;;;;59.50;23.25;;;;;;;9.72;54.63;101963.25;5004331;28;20291;-74
2020/12/02 09:31:11;;;;;;;59.50;22.73;;;;;;;9.72;54.82;101952.94;5009791;28;20041;-74
2020/12/02 09:33:37;;;;;;;43.90;21.30;;;;;;;9.52;55.25;101950.16;5004046;28;20565;-74
2020/12/02 09:36:02;;;;;;;54.33;22.00;;;;;;;9.34;55.73;101949.94;5008691;28;20030;-71
2020/12/02 09:38:28;;;;;;;59.35;22.20;;;;;;;9.13;56.16;101945.38;4992497;28;20533;-72
2020/12/02 09:40:55;;;;;;;55.58;21.23;;;;;;;9.55;55.32;101933.81;5003316;28;20030;-72
2020/12/02 09:43:44;;;;;;;59.35;22.70;;;;;;;9.57;55.75;101942.44;5005173;28;20187;-73
2020/12/02 09:46:17;;;;;;;57.72;25.05;;;;;;;9.45;55.78;101932.00;5006593;28;20095;-72
2020/12/02 09:48:43;;;;;;;50.33;21.58;;;;;;;9.60;55.21;101937.34;5003648;28;20034;-73
2020/12/02 09:51:27;;;;;;;57.13;22.10;;;;;;;9.63;54.99;101929.63;5006917;28;20048;-73
2020/12/02 09:53:53;;;;;;;52.80;21.77;;;;;;;9.56;55.07;101927.81;5011266;28;20532;-74
2020/12/02 09:56:20;;;;;;;54.78;20.90;;;;;;;9.76;54.98;101923.72;5000470;28;20026;-73
2020/12/02 09:58:46;;;;;;;58.97;21.33;;;;;;;9.77;55.20;101917.69;5007233;28;20049;-74
2020/12/02 10:01:22;;;;;;;45.63;18.75;;;;;;;9.74;54.71;101920.25;5005788;28;20030;-73
2020/12/02 10:04:21;;;;;;;54.17;21.17;;;;;;;9.82;54.86;101909.13;5005758;28;20757;-72
2020/12/02 10:07:01;;;;;;;48.65;19.35;;;;;;;9.83;54.70;101908.28;5005274;28;20494;-74
2020/12/02 10:09:33;;;;;;;47.63;20.33;;;;;;;9.92;54.28;101904.06;5004738;28;20038;-74
2020/12/02 10:12:23;;;;;;;50.47;20.45;;;;;;;9.96;54.25;101892.06;5008037;28;20034;-71
2020/12/02 10:14:55;;;;;;;49.45;21.10;;;;;;;9.85;54.48;101891.09;5009229;28;20038;-73
2020/12/02 10:17:47;;;;;;;50.45;19.02;;;;;;;9.94;54.24;101886.88;5010473;28;20062;-73
2020/12/02 10:20:28;;;;;;;49.43;21.33;;;;;;;9.78;54.47;101879.84;5011954;28;20042;-73
2020/12/02 10:23:12;;;;;;;45.22;19.90;;;;;;;9.68;55.21;101881.47;5009329;28;20354;-73
2020/12/02 10:25:56;;;;;;;50.78;21.25;;;;;;;9.57;55.12;101880.50;5005369;28;20030;-72
2020/12/02 10:28:31;;;;;;;49.72;20.88;;;;;;;9.63;54.85;101880.56;5009512;28;20105;-73
2020/12/02 10:31:25;;;;;;;52.50;20.50;;;;;;;9.78;54.93;101869.53;5007780;28;20030;-72
2020/12/02 10:34:05;;;;;;;51.20;20.05;;;;;;;9.81;54.71;101868.69;5011791;28;20037;-73
2020/12/02 10:36:37;;;;;;;51.67;20.17;;;;;;;9.89;55.29;101861.84;5000729;28;20045;-73
2020/12/02 10:39:16;;;;;;;47.60;20.48;;;;;;;9.83;54.78;101864.41;5008933;28;20112;-74
2020/12/02 10:42:10;;;;;;;48.50;19.77;;;;;;;9.66;55.05;101849.59;5003150;28;20049;-75
2020/12/02 10:44:47;;;;;;;55.25;21.27;;;;;;;9.85;54.54;101852.38;5005950;28;20613;-75
2020/12/02 10:47:48;;;;;;;48.38;18.35;;;;;;;9.68;55.11;101837.59;5003516;28;20508;-74
2020/12/02 10:50:16;;;;;;;47.95;20.15;;;;;;;10.04;54.01;101841.28;4987971;28;20041;-75
2020/12/02 10:52:45;;;;;;;52.47;20.45;;;;;;;9.98;53.93;101831.81;5008257;28;20042;-75
2020/12/02 10:55:14;;;;;;;44.88;20.27;;;;;;;10.03;54.26;101833.56;5010055;28;20026;-76
2020/12/02 10:57:41;;;;;;;45.17;20.08;;;;;;;10.21;54.04;101823.34;5007138;28;20038;-75
2020/12/02 11:00:10;;;;;;;43.38;19.52;;;;;;;10.09;54.19;101826.72;5010600;28;20045;-76
2020/12/02 11:02:36;;;;;;;44.33;17.90;;;;;;;10.38;53.52;101820.84;5009753;28;20056;-75
2020/12/02 11:05:05;;;;;;;49.00;20.35;;;;;;;10.45;53.45;101820.06;5011495;28;20655;-75
2020/12/02 11:08:07;;;;;;;52.08;21.85;;;;;;;10.41;53.23;101810.56;5008953;28;20034;-75
2020/12/02 11:10:33;;;;;;;45.35;17.85;;;;;;;10.46;53.20;101813.16;4986808;28;20038;-75
2020/12/02 11:13:21;;;;;;;46.10;19.70;;;;;;;10.57;52.97;101796.84;5015004;28;20034;-75
2020/12/02 11:16:28;;;;;;;43.85;17.98;;;;;;;10.51;52.83;101807.13;5010861;28;20053;-74
2020/12/02 11:19:11;;;;;;;46.35;20.45;;;;;;;10.27;53.34;101801.81;4977852;28;20042;-75
2020/12/02 11:22:19;;;;;;;43.45;19.20;;;;;;;10.15;53.27;101790.56;5022006;28;20060;-74
2020/12/02 11:25:22;;;;;;;46.97;20.70;;;;;;;10.27;52.86;101787.22;4984897;28;20049;-75
2020/12/02 11:27:48;;;;;;;46.72;18.88;;;;;;;10.34;53.36;101781.22;5009642;28;20042;-74
2020/12/02 11:30:37;;;;;;;47.90;19.80;;;;;;;10.59;52.81;101778.75;5007933;28;20116;-75
2020/12/02 11:33:42;;;;;;;48.78;18.83;;;;;;;10.47;53.14;101768.34;5012990;28;20038;-75
2020/12/02 11:36:16;;;;;;;44.40;18.42;;;;;;;10.29;52.79;101769.13;5009942;28;20100;-75
2020/12/02 11:39:02;;;;;;;44.42;17.77;;;;;;;10.34;52.52;101764.88;5008396;28;20514;-72